sensor_id;sensor_type;location;lat;lon;timestamp;P1;durP1;ratioP1;P2;durP2;ratioP2
53263;SDS011;39153;52.680;6.172;2022-09-12T00:01:22;15.35;;;12.98;;
53263;SDS011;39153;52.680;6.172;2022-09-12T00:03:58;17.65;;;13.80;;
53263;SDS011;39153;52.680;6.172;2022-09-12T00:06:26;15.57;;;13.88;;
53263;SDS011;39153;52.680;6.172;2022-09-12T00:08:53;17.08;;;14.07;;
53263;SDS011;39153;52.680;6.172;2022-09-12T00:11:21;17.02;;;14.55;;
53263;SDS011;39153;52.680;6.172;2022-09-12T00:13:47;15.68;;;14.00;;
53263;SDS011;39153;52.680;6.172;2022-09-12T00:16:18;16.35;;;14.73;;
53263;SDS011;39153;52.680;6.172;2022-09-12T00:18:48;16.92;;;15.13;;
53263;SDS011;39153;52.680;6.172;2022-09-12T00:21:15;18.58;;;16.67;;
53263;SDS011;39153;52.680;6.172;2022-09-12T00:23:42;19.10;;;16.83;;
53263;SDS011;39153;52.680;6.172;2022-09-12T00:26:08;20.13;;;15.82;;
53263;SDS011;39153;52.680;6.172;2022-09-12T00:28:34;20.48;;;17.25;;
53263;SDS011;39153;52.680;6.172;2022-09-12T00:31:06;17.25;;;15.43;;
53263;SDS011;39153;52.680;6.172;2022-09-12T00:33:33;17.40;;;15.63;;
53263;SDS011;39153;52.680;6.172;2022-09-12T00:36:02;18.50;;;16.20;;
53263;SDS011;39153;52.680;6.172;2022-09-12T00:38:33;20.27;;;17.33;;
53263;SDS011;39153;52.680;6.172;2022-09-12T00:41:03;23.08;;;19.02;;
53263;SDS011;39153;52.680;6.172;2022-09-12T00:45:58;23.10;;;18.50;;
53263;SDS011;39153;52.680;6.172;2022-09-12T00:48:38;20.15;;;18.02;;
53263;SDS011;39153;52.680;6.172;2022-09-12T00:51:12;20.80;;;18.27;;
53263;SDS011;39153;52.680;6.172;2022-09-12T00:53:39;22.27;;;18.35;;
53263;SDS011;39153;52.680;6.172;2022-09-12T00:56:07;21.08;;;18.88;;
53263;SDS011;39153;52.680;6.172;2022-09-12T00:58:35;21.02;;;18.77;;
53263;SDS011;39153;52.680;6.172;2022-09-12T01:01:05;21.42;;;19.13;;
53263;SDS011;39153;52.680;6.172;2022-09-12T01:03:31;21.88;;;19.60;;
53263;SDS011;39153;52.680;6.172;2022-09-12T01:06:17;22.38;;;19.98;;
53263;SDS011;39153;52.680;6.172;2022-09-12T01:08:48;22.95;;;20.48;;
53263;SDS011;39153;52.680;6.172;2022-09-12T01:11:16;22.58;;;20.15;;
53263;SDS011;39153;52.680;6.172;2022-09-12T01:13:44;23.20;;;20.80;;
53263;SDS011;39153;52.680;6.172;2022-09-12T01:16:10;23.10;;;20.70;;
53263;SDS011;39153;52.680;6.172;2022-09-12T01:19:00;23.42;;;20.92;;
53263;SDS011;39153;52.680;6.172;2022-09-12T01:21:44;25.38;;;21.73;;
53263;SDS011;39153;52.680;6.172;2022-09-12T01:29:47;24.38;;;21.83;;
53263;SDS011;39153;52.680;6.172;2022-09-12T01:32:38;24.08;;;21.52;;
53263;SDS011;39153;52.680;6.172;2022-09-12T01:36:15;23.40;;;20.83;;
53263;SDS011;39153;52.680;6.172;2022-09-12T01:46:37;23.55;;;21.15;;
53263;SDS011;39153;52.680;6.172;2022-09-12T01:49:22;24.30;;;21.70;;
53263;SDS011;39153;52.680;6.172;2022-09-12T01:52:15;24.33;;;21.75;;
53263;SDS011;39153;52.680;6.172;2022-09-12T01:54:48;25.33;;;22.63;;
53263;SDS011;39153;52.680;6.172;2022-09-12T01:57:21;25.35;;;22.63;;
53263;SDS011;39153;52.680;6.172;2022-09-12T01:59:53;26.05;;;23.25;;
53263;SDS011;39153;52.680;6.172;2022-09-12T02:05:10;26.33;;;23.45;;
53263;SDS011;39153;52.680;6.172;2022-09-12T02:07:48;28.55;;;23.20;;
53263;SDS011;39153;52.680;6.172;2022-09-12T02:10:21;27.40;;;24.50;;
53263;SDS011;39153;52.680;6.172;2022-09-12T02:15:40;27.00;;;24.08;;
53263;SDS011;39153;52.680;6.172;2022-09-12T02:18:10;27.40;;;23.90;;
53263;SDS011;39153;52.680;6.172;2022-09-12T02:20:39;27.13;;;24.23;;
53263;SDS011;39153;52.680;6.172;2022-09-12T02:23:08;28.60;;;25.52;;
53263;SDS011;39153;52.680;6.172;2022-09-12T02:25:39;28.63;;;25.67;;
53263;SDS011;39153;52.680;6.172;2022-09-12T02:28:11;30.10;;;26.83;;
53263;SDS011;39153;52.680;6.172;2022-09-12T02:30:43;29.90;;;26.65;;
53263;SDS011;39153;52.680;6.172;2022-09-12T02:33:26;30.08;;;26.67;;
53263;SDS011;39153;52.680;6.172;2022-09-12T02:36:02;32.67;;;26.35;;
53263;SDS011;39153;52.680;6.172;2022-09-12T02:41:09;30.75;;;27.40;;
53263;SDS011;39153;52.680;6.172;2022-09-12T02:43:37;33.53;;;28.00;;
53263;SDS011;39153;52.680;6.172;2022-09-12T02:46:04;32.58;;;27.40;;
53263;SDS011;39153;52.680;6.172;2022-09-12T02:48:34;30.80;;;27.38;;
53263;SDS011;39153;52.680;6.172;2022-09-12T02:51:04;34.95;;;29.02;;
53263;SDS011;39153;52.680;6.172;2022-09-12T02:53:30;33.80;;;29.50;;
53263;SDS011;39153;52.680;6.172;2022-09-12T02:55:55;34.85;;;29.77;;
53263;SDS011;39153;52.680;6.172;2022-09-12T02:58:22;35.95;;;30.13;;
53263;SDS011;39153;52.680;6.172;2022-09-12T03:06:32;33.13;;;28.60;;
53263;SDS011;39153;52.680;6.172;2022-09-12T03:09:19;32.80;;;29.17;;
53263;SDS011;39153;52.680;6.172;2022-09-12T03:14:42;33.30;;;29.38;;
53263;SDS011;39153;52.680;6.172;2022-09-12T03:20:14;33.83;;;29.02;;
53263;SDS011;39153;52.680;6.172;2022-09-12T03:25:34;35.03;;;31.23;;
53263;SDS011;39153;52.680;6.172;2022-09-12T03:28:14;33.72;;;29.13;;
53263;SDS011;39153;52.680;6.172;2022-09-12T03:30:42;34.40;;;28.98;;
53263;SDS011;39153;52.680;6.172;2022-09-12T03:33:10;33.08;;;27.95;;
53263;SDS011;39153;52.680;6.172;2022-09-12T03:35:36;33.30;;;29.17;;
53263;SDS011;39153;52.680;6.172;2022-09-12T03:38:02;34.42;;;29.45;;
53263;SDS011;39153;52.680;6.172;2022-09-12T03:40:29;32.83;;;28.77;;
53263;SDS011;39153;52.680;6.172;2022-09-12T03:42:55;32.92;;;29.25;;
53263;SDS011;39153;52.680;6.172;2022-09-12T03:45:20;36.03;;;29.75;;
53263;SDS011;39153;52.680;6.172;2022-09-12T03:47:46;36.90;;;30.45;;
53263;SDS011;39153;52.680;6.172;2022-09-12T03:50:11;32.42;;;28.88;;
53263;SDS011;39153;52.680;6.172;2022-09-12T03:52:37;33.13;;;28.40;;
53263;SDS011;39153;52.680;6.172;2022-09-12T03:55:03;35.55;;;29.75;;
53263;SDS011;39153;52.680;6.172;2022-09-12T03:57:29;33.03;;;29.35;;
53263;SDS011;39153;52.680;6.172;2022-09-12T03:59:55;34.20;;;29.20;;
53263;SDS011;39153;52.680;6.172;2022-09-12T04:02:21;35.28;;;29.42;;
53263;SDS011;39153;52.680;6.172;2022-09-12T04:04:46;34.80;;;29.52;;
53263;SDS011;39153;52.680;6.172;2022-09-12T04:07:13;33.67;;;29.55;;
53263;SDS011;39153;52.680;6.172;2022-09-12T04:09:40;36.35;;;29.67;;
53263;SDS011;39153;52.680;6.172;2022-09-12T04:12:06;34.05;;;29.13;;
53263;SDS011;39153;52.680;6.172;2022-09-12T04:14:32;32.58;;;28.75;;
53263;SDS011;39153;52.680;6.172;2022-09-12T04:16:58;31.90;;;28.40;;
53263;SDS011;39153;52.680;6.172;2022-09-12T04:19:24;33.75;;;28.42;;
53263;SDS011;39153;52.680;6.172;2022-09-12T04:21:50;31.50;;;27.40;;
53263;SDS011;39153;52.680;6.172;2022-09-12T04:24:16;33.83;;;28.50;;
53263;SDS011;39153;52.680;6.172;2022-09-12T04:26:42;33.97;;;28.65;;
53263;SDS011;39153;52.680;6.172;2022-09-12T04:29:08;32.83;;;27.85;;
53263;SDS011;39153;52.680;6.172;2022-09-12T04:31:36;36.13;;;29.67;;
53263;SDS011;39153;52.680;6.172;2022-09-12T04:34:02;32.72;;;28.35;;
53263;SDS011;39153;52.680;6.172;2022-09-12T04:36:29;33.63;;;29.20;;
53263;SDS011;39153;52.680;6.172;2022-09-12T04:38:57;34.92;;;28.85;;
53263;SDS011;39153;52.680;6.172;2022-09-12T04:41:25;33.85;;;28.63;;
53263;SDS011;39153;52.680;6.172;2022-09-12T04:43:56;36.58;;;29.48;;
53263;SDS011;39153;52.680;6.172;2022-09-12T04:46:26;34.40;;;29.55;;
53263;SDS011;39153;52.680;6.172;2022-09-12T04:48:53;37.75;;;31.23;;
53263;SDS011;39153;52.680;6.172;2022-09-12T04:51:29;37.22;;;30.80;;
53263;SDS011;39153;52.680;6.172;2022-09-12T04:54:02;43.28;;;33.20;;
53263;SDS011;39153;52.680;6.172;2022-09-12T04:56:30;40.80;;;33.33;;
53263;SDS011;39153;52.680;6.172;2022-09-12T04:58:56;40.58;;;32.58;;
53263;SDS011;39153;52.680;6.172;2022-09-12T05:01:24;42.17;;;33.70;;
53263;SDS011;39153;52.680;6.172;2022-09-12T05:03:52;44.05;;;34.63;;
53263;SDS011;39153;52.680;6.172;2022-09-12T05:06:23;41.28;;;32.22;;
53263;SDS011;39153;52.680;6.172;2022-09-12T05:08:50;40.53;;;32.03;;
53263;SDS011;39153;52.680;6.172;2022-09-12T05:11:21;41.85;;;33.55;;
53263;SDS011;39153;52.680;6.172;2022-09-12T05:13:48;41.42;;;33.03;;
53263;SDS011;39153;52.680;6.172;2022-09-12T05:16:15;44.70;;;34.15;;
53263;SDS011;39153;52.680;6.172;2022-09-12T05:18:42;41.95;;;33.05;;
53263;SDS011;39153;52.680;6.172;2022-09-12T05:21:14;45.90;;;34.95;;
53263;SDS011;39153;52.680;6.172;2022-09-12T05:23:41;44.88;;;34.50;;
53263;SDS011;39153;52.680;6.172;2022-09-12T05:26:07;48.28;;;34.60;;
53263;SDS011;39153;52.680;6.172;2022-09-12T05:28:36;46.53;;;34.50;;
53263;SDS011;39153;52.680;6.172;2022-09-12T05:31:07;42.08;;;32.90;;
53263;SDS011;39153;52.680;6.172;2022-09-12T05:33:33;40.15;;;31.60;;
53263;SDS011;39153;52.680;6.172;2022-09-12T05:36:01;42.58;;;33.40;;
53263;SDS011;39153;52.680;6.172;2022-09-12T05:38:28;40.45;;;32.70;;
53263;SDS011;39153;52.680;6.172;2022-09-12T05:41:02;40.80;;;32.67;;
53263;SDS011;39153;52.680;6.172;2022-09-12T05:43:28;45.05;;;33.50;;
53263;SDS011;39153;52.680;6.172;2022-09-12T05:45:59;45.00;;;34.30;;
53263;SDS011;39153;52.680;6.172;2022-09-12T05:48:26;46.00;;;34.60;;
53263;SDS011;39153;52.680;6.172;2022-09-12T05:50:57;44.15;;;33.38;;
53263;SDS011;39153;52.680;6.172;2022-09-12T05:53:26;47.13;;;33.63;;
53263;SDS011;39153;52.680;6.172;2022-09-12T05:56:11;46.75;;;34.25;;
53263;SDS011;39153;52.680;6.172;2022-09-12T05:58:40;46.08;;;35.08;;
53263;SDS011;39153;52.680;6.172;2022-09-12T06:01:12;45.53;;;35.17;;
53263;SDS011;39153;52.680;6.172;2022-09-12T06:03:43;45.25;;;34.97;;
53263;SDS011;39153;52.680;6.172;2022-09-12T06:06:11;49.67;;;34.95;;
53263;SDS011;39153;52.680;6.172;2022-09-12T06:08:42;45.63;;;34.58;;
53263;SDS011;39153;52.680;6.172;2022-09-12T06:11:11;47.33;;;35.22;;
53263;SDS011;39153;52.680;6.172;2022-09-12T06:13:39;47.15;;;35.15;;
53263;SDS011;39153;52.680;6.172;2022-09-12T06:16:27;47.75;;;36.75;;
53263;SDS011;39153;52.680;6.172;2022-09-12T06:18:53;47.95;;;35.33;;
53263;SDS011;39153;52.680;6.172;2022-09-12T06:21:21;48.20;;;34.95;;
53263;SDS011;39153;52.680;6.172;2022-09-12T06:23:48;48.67;;;35.30;;
53263;SDS011;39153;52.680;6.172;2022-09-12T06:26:15;54.03;;;36.97;;
53263;SDS011;39153;52.680;6.172;2022-09-12T06:28:43;46.95;;;35.05;;
53263;SDS011;39153;52.680;6.172;2022-09-12T06:31:18;48.35;;;34.97;;
53263;SDS011;39153;52.680;6.172;2022-09-12T06:33:47;52.28;;;36.05;;
53263;SDS011;39153;52.680;6.172;2022-09-12T06:36:15;50.17;;;36.13;;
53263;SDS011;39153;52.680;6.172;2022-09-12T06:38:42;48.17;;;34.88;;
53263;SDS011;39153;52.680;6.172;2022-09-12T06:41:10;50.13;;;35.17;;
53263;SDS011;39153;52.680;6.172;2022-09-12T06:43:37;48.38;;;35.60;;
53263;SDS011;39153;52.680;6.172;2022-09-12T06:46:04;54.28;;;38.00;;
53263;SDS011;39153;52.680;6.172;2022-09-12T06:48:31;49.78;;;35.83;;
53263;SDS011;39153;52.680;6.172;2022-09-12T06:51:08;52.22;;;35.88;;
53263;SDS011;39153;52.680;6.172;2022-09-12T06:53:36;55.30;;;39.45;;
53263;SDS011;39153;52.680;6.172;2022-09-12T06:56:03;53.58;;;38.17;;
53263;SDS011;39153;52.680;6.172;2022-09-12T06:58:46;51.90;;;36.45;;
53263;SDS011;39153;52.680;6.172;2022-09-12T07:01:17;52.42;;;37.38;;
53263;SDS011;39153;52.680;6.172;2022-09-12T07:03:48;48.65;;;35.22;;
53263;SDS011;39153;52.680;6.172;2022-09-12T07:06:16;48.78;;;34.97;;
53263;SDS011;39153;52.680;6.172;2022-09-12T07:08:43;48.42;;;35.20;;
53263;SDS011;39153;52.680;6.172;2022-09-12T07:13:39;53.70;;;36.65;;
53263;SDS011;39153;52.680;6.172;2022-09-12T07:16:06;54.05;;;37.83;;
53263;SDS011;39153;52.680;6.172;2022-09-12T07:18:33;54.38;;;38.50;;
53263;SDS011;39153;52.680;6.172;2022-09-12T07:21:00;56.22;;;37.45;;
53263;SDS011;39153;52.680;6.172;2022-09-12T07:23:26;56.95;;;38.70;;
53263;SDS011;39153;52.680;6.172;2022-09-12T07:25:53;54.15;;;38.35;;
53263;SDS011;39153;52.680;6.172;2022-09-12T07:28:21;57.05;;;37.85;;
53263;SDS011;39153;52.680;6.172;2022-09-12T07:30:48;58.60;;;39.42;;
53263;SDS011;39153;52.680;6.172;2022-09-12T07:33:14;57.38;;;39.55;;
53263;SDS011;39153;52.680;6.172;2022-09-12T07:35:40;52.58;;;37.28;;
53263;SDS011;39153;52.680;6.172;2022-09-12T07:38:05;58.28;;;40.05;;
53263;SDS011;39153;52.680;6.172;2022-09-12T07:40:31;57.67;;;38.22;;
53263;SDS011;39153;52.680;6.172;2022-09-12T07:42:57;57.85;;;38.03;;
53263;SDS011;39153;52.680;6.172;2022-09-12T07:45:22;60.03;;;39.88;;
53263;SDS011;39153;52.680;6.172;2022-09-12T07:47:51;57.22;;;38.97;;
53263;SDS011;39153;52.680;6.172;2022-09-12T07:50:18;55.15;;;37.47;;
53263;SDS011;39153;52.680;6.172;2022-09-12T07:52:43;57.88;;;40.17;;
53263;SDS011;39153;52.680;6.172;2022-09-12T07:55:09;58.97;;;40.42;;
53263;SDS011;39153;52.680;6.172;2022-09-12T07:57:35;57.38;;;39.03;;
53263;SDS011;39153;52.680;6.172;2022-09-12T08:00:00;56.85;;;39.67;;
53263;SDS011;39153;52.680;6.172;2022-09-12T08:02:27;58.72;;;39.63;;
53263;SDS011;39153;52.680;6.172;2022-09-12T08:04:53;57.28;;;39.38;;
53263;SDS011;39153;52.680;6.172;2022-09-12T08:07:19;57.65;;;39.58;;
53263;SDS011;39153;52.680;6.172;2022-09-12T08:09:44;59.55;;;38.97;;
53263;SDS011;39153;52.680;6.172;2022-09-12T08:12:10;55.15;;;38.42;;
53263;SDS011;39153;52.680;6.172;2022-09-12T08:14:36;56.15;;;38.17;;
53263;SDS011;39153;52.680;6.172;2022-09-12T08:17:02;54.58;;;38.33;;
53263;SDS011;39153;52.680;6.172;2022-09-12T08:19:27;57.38;;;38.60;;
53263;SDS011;39153;52.680;6.172;2022-09-12T08:21:53;56.85;;;39.05;;
53263;SDS011;39153;52.680;6.172;2022-09-12T08:24:19;54.60;;;37.78;;
53263;SDS011;39153;52.680;6.172;2022-09-12T08:26:44;52.33;;;35.70;;
53263;SDS011;39153;52.680;6.172;2022-09-12T08:29:10;51.08;;;34.83;;
53263;SDS011;39153;52.680;6.172;2022-09-12T08:31:36;50.60;;;35.47;;
53263;SDS011;39153;52.680;6.172;2022-09-12T08:34:05;51.88;;;35.65;;
53263;SDS011;39153;52.680;6.172;2022-09-12T08:36:31;48.85;;;35.00;;
53263;SDS011;39153;52.680;6.172;2022-09-12T08:38:58;53.10;;;35.55;;
53263;SDS011;39153;52.680;6.172;2022-09-12T08:41:44;56.63;;;36.53;;
53263;SDS011;39153;52.680;6.172;2022-09-12T08:52:27;49.75;;;34.92;;
53263;SDS011;39153;52.680;6.172;2022-09-12T08:58:16;49.47;;;34.33;;
53263;SDS011;39153;52.680;6.172;2022-09-12T09:01:05;55.53;;;37.25;;
53263;SDS011;39153;52.680;6.172;2022-09-12T09:09:05;55.60;;;37.22;;
53263;SDS011;39153;52.680;6.172;2022-09-12T09:22:35;49.22;;;34.00;;
53263;SDS011;39153;52.680;6.172;2022-09-12T09:25:06;54.88;;;34.40;;
53263;SDS011;39153;52.680;6.172;2022-09-12T09:27:44;55.08;;;35.13;;
53263;SDS011;39153;52.680;6.172;2022-09-12T09:30:18;49.95;;;33.78;;
53263;SDS011;39153;52.680;6.172;2022-09-12T09:32:49;55.67;;;34.92;;
53263;SDS011;39153;52.680;6.172;2022-09-12T09:35:24;51.00;;;35.25;;
53263;SDS011;39153;52.680;6.172;2022-09-12T09:40:26;52.05;;;35.15;;
53263;SDS011;39153;52.680;6.172;2022-09-12T09:43:17;48.38;;;33.60;;
53263;SDS011;39153;52.680;6.172;2022-09-12T09:45:51;50.70;;;34.97;;
53263;SDS011;39153;52.680;6.172;2022-09-12T09:48:18;45.38;;;32.30;;
53263;SDS011;39153;52.680;6.172;2022-09-12T09:51:06;47.78;;;32.78;;
53263;SDS011;39153;52.680;6.172;2022-09-12T09:56:24;48.38;;;32.58;;
53263;SDS011;39153;52.680;6.172;2022-09-12T09:59:11;46.05;;;32.30;;
53263;SDS011;39153;52.680;6.172;2022-09-12T10:01:53;43.90;;;31.08;;
53263;SDS011;39153;52.680;6.172;2022-09-12T10:04:21;41.90;;;29.75;;
53263;SDS011;39153;52.680;6.172;2022-09-12T10:06:53;42.88;;;30.38;;
53263;SDS011;39153;52.680;6.172;2022-09-12T10:09:29;41.90;;;29.13;;
53263;SDS011;39153;52.680;6.172;2022-09-12T10:12:00;42.67;;;29.65;;
53263;SDS011;39153;52.680;6.172;2022-09-12T10:14:43;43.20;;;30.35;;
53263;SDS011;39153;52.680;6.172;2022-09-12T10:17:28;42.20;;;30.50;;
53263;SDS011;39153;52.680;6.172;2022-09-12T10:20:28;40.85;;;29.17;;
53263;SDS011;39153;52.680;6.172;2022-09-12T10:23:00;37.67;;;26.40;;
53263;SDS011;39153;52.680;6.172;2022-09-12T10:25:31;41.17;;;28.35;;
53263;SDS011;39153;52.680;6.172;2022-09-12T10:27:57;38.83;;;25.50;;
53263;SDS011;39153;52.680;6.172;2022-09-12T10:30:25;38.08;;;25.98;;
53263;SDS011;39153;52.680;6.172;2022-09-12T10:33:02;41.47;;;27.63;;
53263;SDS011;39153;52.680;6.172;2022-09-12T10:35:40;33.55;;;24.35;;
53263;SDS011;39153;52.680;6.172;2022-09-12T10:38:16;34.92;;;24.27;;
53263;SDS011;39153;52.680;6.172;2022-09-12T10:40:57;29.70;;;21.63;;
53263;SDS011;39153;52.680;6.172;2022-09-12T10:43:33;30.50;;;20.98;;
53263;SDS011;39153;52.680;6.172;2022-09-12T10:48:47;28.75;;;20.38;;
53263;SDS011;39153;52.680;6.172;2022-09-12T10:53:49;28.15;;;20.83;;
53263;SDS011;39153;52.680;6.172;2022-09-12T10:56:21;24.42;;;17.73;;
53263;SDS011;39153;52.680;6.172;2022-09-12T11:01:46;22.90;;;16.85;;
53263;SDS011;39153;52.680;6.172;2022-09-12T11:10:11;26.63;;;17.10;;
53263;SDS011;39153;52.680;6.172;2022-09-12T11:21:28;22.48;;;16.88;;
53263;SDS011;39153;52.680;6.172;2022-09-12T11:29:58;23.42;;;15.63;;
53263;SDS011;39153;52.680;6.172;2022-09-12T11:35:25;25.15;;;16.00;;
53263;SDS011;39153;52.680;6.172;2022-09-12T11:46:21;22.08;;;15.95;;
53263;SDS011;39153;52.680;6.172;2022-09-12T11:48:56;20.48;;;15.45;;
53263;SDS011;39153;52.680;6.172;2022-09-12T11:51:44;19.23;;;14.50;;
53263;SDS011;39153;52.680;6.172;2022-09-12T11:54:31;21.15;;;13.90;;
53263;SDS011;39153;52.680;6.172;2022-09-12T12:02:25;19.38;;;13.38;;
53263;SDS011;39153;52.680;6.172;2022-09-12T12:07:53;17.83;;;13.45;;
53263;SDS011;39153;52.680;6.172;2022-09-12T12:10:31;16.85;;;12.55;;
53263;SDS011;39153;52.680;6.172;2022-09-12T12:12:59;17.85;;;12.65;;
53263;SDS011;39153;52.680;6.172;2022-09-12T12:15:26;18.58;;;12.75;;
53263;SDS011;39153;52.680;6.172;2022-09-12T12:20:50;14.18;;;11.15;;
53263;SDS011;39153;52.680;6.172;2022-09-12T12:25:53;18.23;;;12.00;;
53263;SDS011;39153;52.680;6.172;2022-09-12T12:31:07;16.52;;;12.35;;
53263;SDS011;39153;52.680;6.172;2022-09-12T12:36:07;11.82;;;9.45;;
53263;SDS011;39153;52.680;6.172;2022-09-12T12:38:34;16.90;;;12.10;;
53263;SDS011;39153;52.680;6.172;2022-09-12T12:43:51;15.93;;;12.02;;
53263;SDS011;39153;52.680;6.172;2022-09-12T12:46:20;14.95;;;10.98;;
53263;SDS011;39153;52.680;6.172;2022-09-12T12:49:10;14.45;;;9.52;;
53263;SDS011;39153;52.680;6.172;2022-09-12T12:59:50;15.60;;;11.35;;
53263;SDS011;39153;52.680;6.172;2022-09-12T13:02:40;18.27;;;12.15;;
53263;SDS011;39153;52.680;6.172;2022-09-12T13:05:26;14.15;;;10.55;;
53263;SDS011;39153;52.680;6.172;2022-09-12T13:07:55;12.65;;;9.73;;
53263;SDS011;39153;52.680;6.172;2022-09-12T13:10:26;14.88;;;10.45;;
53263;SDS011;39153;52.680;6.172;2022-09-12T13:12:54;14.63;;;9.88;;
53263;SDS011;39153;52.680;6.172;2022-09-12T13:16:07;15.10;;;9.98;;
53263;SDS011;39153;52.680;6.172;2022-09-12T13:18:22;11.07;;;8.40;;
53263;SDS011;39153;52.680;6.172;2022-09-12T13:23:42;11.32;;;7.47;;
53263;SDS011;39153;52.680;6.172;2022-09-12T13:26:13;11.00;;;6.70;;
53263;SDS011;39153;52.680;6.172;2022-09-12T13:28:46;10.55;;;7.47;;
53263;SDS011;39153;52.680;6.172;2022-09-12T13:33:56;10.55;;;6.13;;
53263;SDS011;39153;52.680;6.172;2022-09-12T13:44:22;6.82;;;4.85;;
53263;SDS011;39153;52.680;6.172;2022-09-12T13:46:50;6.68;;;4.90;;
53263;SDS011;39153;52.680;6.172;2022-09-12T13:49:21;6.68;;;3.92;;
53263;SDS011;39153;52.680;6.172;2022-09-12T13:54:30;6.57;;;4.20;;
53263;SDS011;39153;52.680;6.172;2022-09-12T13:56:58;6.60;;;4.22;;
53263;SDS011;39153;52.680;6.172;2022-09-12T13:59:24;7.00;;;4.20;;
53263;SDS011;39153;52.680;6.172;2022-09-12T14:01:50;7.05;;;4.05;;
53263;SDS011;39153;52.680;6.172;2022-09-12T14:04:22;8.20;;;3.90;;
53263;SDS011;39153;52.680;6.172;2022-09-12T14:07:12;6.28;;;3.30;;
53263;SDS011;39153;52.680;6.172;2022-09-12T14:09:43;5.72;;;2.85;;
53263;SDS011;39153;52.680;6.172;2022-09-12T14:15:26;6.05;;;3.03;;
53263;SDS011;39153;52.680;6.172;2022-09-12T14:17:56;6.20;;;3.28;;
53263;SDS011;39153;52.680;6.172;2022-09-12T14:20:29;7.38;;;3.55;;
53263;SDS011;39153;52.680;6.172;2022-09-12T14:23:00;4.85;;;3.05;;
53263;SDS011;39153;52.680;6.172;2022-09-12T14:25:33;4.75;;;3.13;;
53263;SDS011;39153;52.680;6.172;2022-09-12T14:28:03;5.78;;;3.17;;
53263;SDS011;39153;52.680;6.172;2022-09-12T14:30:31;6.03;;;3.00;;
53263;SDS011;39153;52.680;6.172;2022-09-12T14:33:17;5.75;;;3.30;;
53263;SDS011;39153;52.680;6.172;2022-09-12T14:35:45;5.90;;;3.30;;
53263;SDS011;39153;52.680;6.172;2022-09-12T14:43:20;5.70;;;3.80;;
53263;SDS011;39153;52.680;6.172;2022-09-12T14:46:00;5.50;;;3.45;;
53263;SDS011;39153;52.680;6.172;2022-09-12T14:48:33;4.88;;;2.90;;
53263;SDS011;39153;52.680;6.172;2022-09-12T14:51:00;5.32;;;2.50;;
53263;SDS011;39153;52.680;6.172;2022-09-12T14:53:34;4.00;;;2.55;;
53263;SDS011;39153;52.680;6.172;2022-09-12T14:58:32;5.80;;;3.33;;
53263;SDS011;39153;52.680;6.172;2022-09-12T15:06:22;7.43;;;3.50;;
53263;SDS011;39153;52.680;6.172;2022-09-12T15:09:11;12.15;;;4.15;;
53263;SDS011;39153;52.680;6.172;2022-09-12T15:11:37;7.50;;;4.22;;
53263;SDS011;39153;52.680;6.172;2022-09-12T15:14:12;4.82;;;3.53;;
53263;SDS011;39153;52.680;6.172;2022-09-12T15:16:39;7.10;;;3.67;;
53263;SDS011;39153;52.680;6.172;2022-09-12T15:19:05;7.07;;;4.43;;
53263;SDS011;39153;52.680;6.172;2022-09-12T15:21:31;5.78;;;3.85;;
53263;SDS011;39153;52.680;6.172;2022-09-12T15:23:56;5.60;;;3.70;;
53263;SDS011;39153;52.680;6.172;2022-09-12T15:26:22;5.93;;;3.83;;
53263;SDS011;39153;52.680;6.172;2022-09-12T15:28:51;5.45;;;3.58;;
53263;SDS011;39153;52.680;6.172;2022-09-12T15:33:49;4.88;;;3.60;;
53263;SDS011;39153;52.680;6.172;2022-09-12T15:36:16;5.43;;;2.95;;
53263;SDS011;39153;52.680;6.172;2022-09-12T15:38:44;6.40;;;3.40;;
53263;SDS011;39153;52.680;6.172;2022-09-12T15:41:12;4.35;;;2.72;;
53263;SDS011;39153;52.680;6.172;2022-09-12T15:43:41;5.18;;;2.95;;
53263;SDS011;39153;52.680;6.172;2022-09-12T15:46:08;6.53;;;3.42;;
53263;SDS011;39153;52.680;6.172;2022-09-12T15:48:35;7.53;;;3.50;;
53263;SDS011;39153;52.680;6.172;2022-09-12T15:51:01;5.78;;;3.60;;
53263;SDS011;39153;52.680;6.172;2022-09-12T15:53:29;6.10;;;3.67;;
53263;SDS011;39153;52.680;6.172;2022-09-12T15:55:55;5.00;;;3.63;;
53263;SDS011;39153;52.680;6.172;2022-09-12T15:58:21;4.93;;;3.22;;
53263;SDS011;39153;52.680;6.172;2022-09-12T16:00:47;7.13;;;3.22;;
53263;SDS011;39153;52.680;6.172;2022-09-12T16:03:23;7.07;;;3.50;;
53263;SDS011;39153;52.680;6.172;2022-09-12T16:05:55;5.95;;;2.97;;
53263;SDS011;39153;52.680;6.172;2022-09-12T16:08:22;5.05;;;3.70;;
53263;SDS011;39153;52.680;6.172;2022-09-12T16:10:48;5.63;;;3.85;;
53263;SDS011;39153;52.680;6.172;2022-09-12T16:13:36;5.72;;;3.75;;
53263;SDS011;39153;52.680;6.172;2022-09-12T16:16:02;6.78;;;3.60;;
53263;SDS011;39153;52.680;6.172;2022-09-12T16:18:28;6.82;;;3.78;;
53263;SDS011;39153;52.680;6.172;2022-09-12T16:20:53;5.78;;;3.83;;
53263;SDS011;39153;52.680;6.172;2022-09-12T16:23:20;5.45;;;3.67;;
53263;SDS011;39153;52.680;6.172;2022-09-12T16:26:05;6.35;;;3.78;;
53263;SDS011;39153;52.680;6.172;2022-09-12T16:28:31;6.05;;;3.85;;
53263;SDS011;39153;52.680;6.172;2022-09-12T16:31:00;5.40;;;3.88;;
53263;SDS011;39153;52.680;6.172;2022-09-12T16:33:27;6.75;;;3.70;;
53263;SDS011;39153;52.680;6.172;2022-09-12T16:36:04;6.40;;;4.05;;
53263;SDS011;39153;52.680;6.172;2022-09-12T16:38:31;6.78;;;4.38;;
53263;SDS011;39153;52.680;6.172;2022-09-12T16:41:01;7.30;;;4.10;;
53263;SDS011;39153;52.680;6.172;2022-09-12T16:43:31;5.75;;;4.18;;
53263;SDS011;39153;52.680;6.172;2022-09-12T16:46:01;6.80;;;3.80;;
53263;SDS011;39153;52.680;6.172;2022-09-12T16:48:29;7.97;;;4.38;;
53263;SDS011;39153;52.680;6.172;2022-09-12T16:50:58;5.95;;;4.10;;
53263;SDS011;39153;52.680;6.172;2022-09-12T16:53:32;5.63;;;4.07;;
53263;SDS011;39153;52.680;6.172;2022-09-12T16:55:59;7.40;;;4.40;;
53263;SDS011;39153;52.680;6.172;2022-09-12T16:58:25;6.68;;;3.85;;
53263;SDS011;39153;52.680;6.172;2022-09-12T17:01:02;4.93;;;3.58;;
53263;SDS011;39153;52.680;6.172;2022-09-12T17:03:39;5.82;;;3.45;;
53263;SDS011;39153;52.680;6.172;2022-09-12T17:06:06;8.98;;;4.20;;
53263;SDS011;39153;52.680;6.172;2022-09-12T17:08:34;5.57;;;4.07;;
53263;SDS011;39153;52.680;6.172;2022-09-12T17:11:03;6.47;;;4.25;;
53263;SDS011;39153;52.680;6.172;2022-09-12T17:13:30;7.13;;;4.32;;
53263;SDS011;39153;52.680;6.172;2022-09-12T17:15:56;6.57;;;4.85;;
53263;SDS011;39153;52.680;6.172;2022-09-12T17:18:22;6.95;;;5.07;;
53263;SDS011;39153;52.680;6.172;2022-09-12T17:20:48;7.38;;;5.20;;
53263;SDS011;39153;52.680;6.172;2022-09-12T17:23:14;7.60;;;4.95;;
53263;SDS011;39153;52.680;6.172;2022-09-12T17:25:47;7.25;;;4.82;;
53263;SDS011;39153;52.680;6.172;2022-09-12T17:28:13;6.53;;;4.83;;
53263;SDS011;39153;52.680;6.172;2022-09-12T17:30:39;8.60;;;5.18;;
53263;SDS011;39153;52.680;6.172;2022-09-12T17:33:05;7.28;;;5.78;;
53263;SDS011;39153;52.680;6.172;2022-09-12T17:35:35;7.80;;;5.63;;
53263;SDS011;39153;52.680;6.172;2022-09-12T17:38:02;7.22;;;5.53;;
53263;SDS011;39153;52.680;6.172;2022-09-12T17:40:29;8.00;;;5.47;;
53263;SDS011;39153;52.680;6.172;2022-09-12T17:42:55;7.57;;;5.32;;
53263;SDS011;39153;52.680;6.172;2022-09-12T17:45:21;8.05;;;5.57;;
53263;SDS011;39153;52.680;6.172;2022-09-12T17:47:47;6.78;;;5.15;;